Trenton, Illinois
Current Conditions -  °F | °C
As of 9:39 PM on Monday 22 Dec 2014 (Local Time) from KBLV Reporting Station
Overcast Overcast  
Wind Chill: 50°   Ceiling: 800
Heat Index: 50°   Visibility: 10mi
Dew Point: 50°   Wind: 9mph
Humidity: 100%   Direction: 170°S
Pressure: 29.54"   Gusts: NA
Location:  38.61°N, 89.68°W
Report Text: KBLV 230339Z AUTO 17008KT 10SM OVC008 10/10 A2954 RMK AO2
Loading
Personal Weather Stations






























Interactive Weather Map New forecast layout! Learn more

10-Day Weather Forecast

Advertisements
Track Severe Weather on mobile